sensor_id;sensor_type;location;lat;lon;timestamp;P1;durP1;ratioP1;P2;durP2;ratioP2
14007;SDS011;61651;45.508;12.232;2023-12-07T00:02:08;35.30;;;31.67;;
14007;SDS011;61651;45.508;12.232;2023-12-07T00:05:12;32.53;;;29.27;;
14007;SDS011;61651;45.508;12.232;2023-12-07T00:08:14;34.90;;;30.43;;
14007;SDS011;61651;45.508;12.232;2023-12-07T00:11:16;32.33;;;28.97;;
14007;SDS011;61651;45.508;12.232;2023-12-07T00:14:18;33.83;;;30.23;;
14007;SDS011;61651;45.508;12.232;2023-12-07T00:17:21;34.00;;;30.47;;
14007;SDS011;61651;45.508;12.232;2023-12-07T00:20:23;36.63;;;32.70;;
14007;SDS011;61651;45.508;12.232;2023-12-07T00:23:25;35.23;;;31.60;;
14007;SDS011;61651;45.508;12.232;2023-12-07T00:26:27;37.53;;;33.60;;
14007;SDS011;61651;45.508;12.232;2023-12-07T00:29:29;37.13;;;33.37;;
14007;SDS011;61651;45.508;12.232;2023-12-07T00:32:33;36.60;;;32.77;;
14007;SDS011;61651;45.508;12.232;2023-12-07T00:35:35;37.50;;;33.50;;
14007;SDS011;61651;45.508;12.232;2023-12-07T00:38:37;37.70;;;33.67;;
14007;SDS011;61651;45.508;12.232;2023-12-07T00:41:39;40.67;;;36.37;;
14007;SDS011;61651;45.508;12.232;2023-12-07T00:44:41;38.67;;;34.57;;
14007;SDS011;61651;45.508;12.232;2023-12-07T00:47:45;39.53;;;35.43;;
14007;SDS011;61651;45.508;12.232;2023-12-07T00:50:47;38.13;;;34.03;;
14007;SDS011;61651;45.508;12.232;2023-12-07T00:53:49;38.93;;;34.83;;
14007;SDS011;61651;45.508;12.232;2023-12-07T00:56:51;36.83;;;32.97;;
14007;SDS011;61651;45.508;12.232;2023-12-07T00:59:53;39.20;;;34.97;;
14007;SDS011;61651;45.508;12.232;2023-12-07T01:02:56;37.90;;;34.07;;
14007;SDS011;61651;45.508;12.232;2023-12-07T01:05:58;37.17;;;33.30;;
14007;SDS011;61651;45.508;12.232;2023-12-07T01:09:00;37.37;;;33.57;;
14007;SDS011;61651;45.508;12.232;2023-12-07T01:12:04;39.93;;;35.67;;
14007;SDS011;61651;45.508;12.232;2023-12-07T01:15:06;38.17;;;34.20;;
14007;SDS011;61651;45.508;12.232;2023-12-07T01:18:10;39.20;;;35.30;;
14007;SDS011;61651;45.508;12.232;2023-12-07T01:21:12;39.03;;;35.03;;
14007;SDS011;61651;45.508;12.232;2023-12-07T01:24:14;42.90;;;38.43;;
14007;SDS011;61651;45.508;12.232;2023-12-07T01:27:17;41.03;;;36.57;;
14007;SDS011;61651;45.508;12.232;2023-12-07T01:30:19;41.23;;;36.93;;
14007;SDS011;61651;45.508;12.232;2023-12-07T01:33:22;43.73;;;39.00;;
14007;SDS011;61651;45.508;12.232;2023-12-07T01:36:24;42.50;;;38.17;;
14007;SDS011;61651;45.508;12.232;2023-12-07T01:39:26;42.03;;;37.70;;
14007;SDS011;61651;45.508;12.232;2023-12-07T01:42:28;41.30;;;36.93;;
14007;SDS011;61651;45.508;12.232;2023-12-07T01:45:30;43.47;;;38.87;;
14007;SDS011;61651;45.508;12.232;2023-12-07T01:48:34;44.33;;;39.70;;
14007;SDS011;61651;45.508;12.232;2023-12-07T01:51:36;44.33;;;40.07;;
14007;SDS011;61651;45.508;12.232;2023-12-07T01:54:38;47.63;;;42.63;;
14007;SDS011;61651;45.508;12.232;2023-12-07T01:57:41;44.83;;;40.37;;
14007;SDS011;61651;45.508;12.232;2023-12-07T02:00:44;46.93;;;42.00;;
14007;SDS011;61651;45.508;12.232;2023-12-07T02:03:48;46.97;;;42.00;;
14007;SDS011;61651;45.508;12.232;2023-12-07T02:06:51;42.23;;;37.83;;
14007;SDS011;61651;45.508;12.232;2023-12-07T02:09:55;44.20;;;39.47;;
14007;SDS011;61651;45.508;12.232;2023-12-07T02:12:58;42.13;;;37.57;;
14007;SDS011;61651;45.508;12.232;2023-12-07T02:16:00;41.40;;;36.90;;
14007;SDS011;61651;45.508;12.232;2023-12-07T02:19:12;41.90;;;37.53;;
14007;SDS011;61651;45.508;12.232;2023-12-07T02:22:27;42.80;;;38.67;;
14007;SDS011;61651;45.508;12.232;2023-12-07T02:25:36;41.17;;;37.03;;
14007;SDS011;61651;45.508;12.232;2023-12-07T02:28:43;41.23;;;36.97;;
14007;SDS011;61651;45.508;12.232;2023-12-07T02:31:45;41.23;;;37.03;;
14007;SDS011;61651;45.508;12.232;2023-12-07T02:34:48;43.67;;;38.87;;
14007;SDS011;61651;45.508;12.232;2023-12-07T02:37:50;41.80;;;37.50;;
14007;SDS011;61651;45.508;12.232;2023-12-07T02:40:53;40.67;;;36.53;;
14007;SDS011;61651;45.508;12.232;2023-12-07T02:43:58;38.87;;;34.87;;
14007;SDS011;61651;45.508;12.232;2023-12-07T02:47:00;39.80;;;35.83;;
14007;SDS011;61651;45.508;12.232;2023-12-07T02:50:03;41.00;;;37.07;;
14007;SDS011;61651;45.508;12.232;2023-12-07T02:53:07;42.07;;;37.67;;
14007;SDS011;61651;45.508;12.232;2023-12-07T02:56:09;42.90;;;38.60;;
14007;SDS011;61651;45.508;12.232;2023-12-07T02:59:12;43.97;;;39.53;;
14007;SDS011;61651;45.508;12.232;2023-12-07T03:02:14;44.07;;;39.27;;
14007;SDS011;61651;45.508;12.232;2023-12-07T03:05:16;41.43;;;37.07;;
14007;SDS011;61651;45.508;12.232;2023-12-07T03:08:19;40.87;;;36.57;;
14007;SDS011;61651;45.508;12.232;2023-12-07T03:11:22;39.50;;;35.23;;
14007;SDS011;61651;45.508;12.232;2023-12-07T03:14:25;39.10;;;35.03;;
14007;SDS011;61651;45.508;12.232;2023-12-07T03:17:28;40.73;;;36.50;;
14007;SDS011;61651;45.508;12.232;2023-12-07T03:20:30;44.10;;;39.57;;
14007;SDS011;61651;45.508;12.232;2023-12-07T03:23:32;45.30;;;40.50;;
14007;SDS011;61651;45.508;12.232;2023-12-07T03:26:35;40.50;;;36.10;;
14007;SDS011;61651;45.508;12.232;2023-12-07T03:29:39;42.17;;;37.87;;
14007;SDS011;61651;45.508;12.232;2023-12-07T03:32:41;39.37;;;35.23;;
14007;SDS011;61651;45.508;12.232;2023-12-07T03:35:43;35.40;;;31.93;;
14007;SDS011;61651;45.508;12.232;2023-12-07T03:38:45;37.13;;;33.33;;
14007;SDS011;61651;45.508;12.232;2023-12-07T03:41:47;35.70;;;32.20;;
14007;SDS011;61651;45.508;12.232;2023-12-07T03:44:51;32.27;;;29.17;;
14007;SDS011;61651;45.508;12.232;2023-12-07T03:47:53;32.67;;;29.47;;
14007;SDS011;61651;45.508;12.232;2023-12-07T03:50:55;42.43;;;38.23;;
14007;SDS011;61651;45.508;12.232;2023-12-07T03:53:57;39.07;;;35.20;;
14007;SDS011;61651;45.508;12.232;2023-12-07T03:56:59;33.73;;;30.33;;
14007;SDS011;61651;45.508;12.232;2023-12-07T04:00:04;31.87;;;28.60;;
14007;SDS011;61651;45.508;12.232;2023-12-07T04:03:10;29.93;;;26.87;;
14007;SDS011;61651;45.508;12.232;2023-12-07T04:06:12;32.63;;;29.27;;
14007;SDS011;61651;45.508;12.232;2023-12-07T04:09:14;28.40;;;25.60;;
14007;SDS011;61651;45.508;12.232;2023-12-07T04:12:16;28.47;;;25.50;;
14007;SDS011;61651;45.508;12.232;2023-12-07T04:15:21;27.87;;;25.23;;
14007;SDS011;61651;45.508;12.232;2023-12-07T04:18:23;26.63;;;23.93;;
14007;SDS011;61651;45.508;12.232;2023-12-07T04:21:25;26.77;;;24.17;;
14007;SDS011;61651;45.508;12.232;2023-12-07T04:24:28;28.93;;;26.20;;
14007;SDS011;61651;45.508;12.232;2023-12-07T04:27:30;27.13;;;24.27;;
14007;SDS011;61651;45.508;12.232;2023-12-07T04:30:35;28.47;;;25.43;;
14007;SDS011;61651;45.508;12.232;2023-12-07T04:33:37;27.73;;;24.90;;
14007;SDS011;61651;45.508;12.232;2023-12-07T04:36:39;26.27;;;23.73;;
14007;SDS011;61651;45.508;12.232;2023-12-07T04:39:41;25.57;;;23.07;;
14007;SDS011;61651;45.508;12.232;2023-12-07T04:42:43;27.00;;;24.50;;
14007;SDS011;61651;45.508;12.232;2023-12-07T04:45:47;30.40;;;27.30;;
14007;SDS011;61651;45.508;12.232;2023-12-07T04:48:49;28.70;;;25.90;;
14007;SDS011;61651;45.508;12.232;2023-12-07T04:51:51;25.97;;;23.23;;
14007;SDS011;61651;45.508;12.232;2023-12-07T04:54:53;26.60;;;23.40;;
14007;SDS011;61651;45.508;12.232;2023-12-07T04:57:55;25.03;;;22.43;;
14007;SDS011;61651;45.508;12.232;2023-12-07T05:00:59;25.27;;;22.83;;
14007;SDS011;61651;45.508;12.232;2023-12-07T05:04:01;24.70;;;22.30;;
14007;SDS011;61651;45.508;12.232;2023-12-07T05:07:03;23.80;;;21.40;;
14007;SDS011;61651;45.508;12.232;2023-12-07T05:10:06;24.70;;;22.23;;
14007;SDS011;61651;45.508;12.232;2023-12-07T05:13:09;23.60;;;21.33;;
14007;SDS011;61651;45.508;12.232;2023-12-07T05:16:13;23.73;;;21.33;;
14007;SDS011;61651;45.508;12.232;2023-12-07T05:19:16;24.37;;;21.87;;
14007;SDS011;61651;45.508;12.232;2023-12-07T05:22:18;22.90;;;20.70;;
14007;SDS011;61651;45.508;12.232;2023-12-07T05:25:21;21.80;;;19.70;;
14007;SDS011;61651;45.508;12.232;2023-12-07T05:28:23;21.83;;;19.77;;
14007;SDS011;61651;45.508;12.232;2023-12-07T05:31:27;22.80;;;20.47;;
14007;SDS011;61651;45.508;12.232;2023-12-07T05:34:30;22.23;;;20.07;;
14007;SDS011;61651;45.508;12.232;2023-12-07T05:37:32;22.17;;;19.97;;
14007;SDS011;61651;45.508;12.232;2023-12-07T05:40:34;23.87;;;20.00;;
14007;SDS011;61651;45.508;12.232;2023-12-07T05:43:36;23.60;;;21.00;;
14007;SDS011;61651;45.508;12.232;2023-12-07T05:46:39;21.23;;;19.23;;
14007;SDS011;61651;45.508;12.232;2023-12-07T05:49:44;22.80;;;20.43;;
14007;SDS011;61651;45.508;12.232;2023-12-07T05:52:46;25.03;;;22.60;;
14007;SDS011;61651;45.508;12.232;2023-12-07T05:55:48;26.07;;;23.23;;
14007;SDS011;61651;45.508;12.232;2023-12-07T05:58:50;25.97;;;23.17;;
14007;SDS011;61651;45.508;12.232;2023-12-07T06:01:54;28.13;;;25.23;;
14007;SDS011;61651;45.508;12.232;2023-12-07T06:04:56;26.10;;;23.30;;
14007;SDS011;61651;45.508;12.232;2023-12-07T06:07:58;23.27;;;21.00;;
14007;SDS011;61651;45.508;12.232;2023-12-07T06:11:00;23.50;;;21.00;;
14007;SDS011;61651;45.508;12.232;2023-12-07T06:14:03;24.03;;;21.43;;
14007;SDS011;61651;45.508;12.232;2023-12-07T06:17:07;23.60;;;21.20;;
14007;SDS011;61651;45.508;12.232;2023-12-07T06:20:10;24.67;;;22.20;;
14007;SDS011;61651;45.508;12.232;2023-12-07T06:23:12;24.43;;;21.90;;
14007;SDS011;61651;45.508;12.232;2023-12-07T06:26:14;24.40;;;21.73;;
14007;SDS011;61651;45.508;12.232;2023-12-07T06:29:16;26.03;;;23.23;;
14007;SDS011;61651;45.508;12.232;2023-12-07T06:32:20;25.57;;;23.00;;
14007;SDS011;61651;45.508;12.232;2023-12-07T06:35:22;26.60;;;23.77;;
14007;SDS011;61651;45.508;12.232;2023-12-07T06:38:24;27.27;;;24.50;;
14007;SDS011;61651;45.508;12.232;2023-12-07T06:41:26;27.47;;;24.23;;
14007;SDS011;61651;45.508;12.232;2023-12-07T06:44:29;27.00;;;24.20;;
14007;SDS011;61651;45.508;12.232;2023-12-07T06:47:32;27.70;;;23.87;;
14007;SDS011;61651;45.508;12.232;2023-12-07T06:50:34;25.70;;;23.20;;
14007;SDS011;61651;45.508;12.232;2023-12-07T06:53:36;26.70;;;24.03;;
14007;SDS011;61651;45.508;12.232;2023-12-07T06:56:40;26.83;;;24.03;;
14007;SDS011;61651;45.508;12.232;2023-12-07T06:59:42;27.77;;;24.77;;
14007;SDS011;61651;45.508;12.232;2023-12-07T07:02:46;31.43;;;28.23;;
14007;SDS011;61651;45.508;12.232;2023-12-07T07:05:48;29.70;;;26.77;;
14007;SDS011;61651;45.508;12.232;2023-12-07T07:08:50;26.47;;;23.70;;
14007;SDS011;61651;45.508;12.232;2023-12-07T07:11:52;26.93;;;24.33;;
14007;SDS011;61651;45.508;12.232;2023-12-07T07:14:54;28.27;;;25.47;;
14007;SDS011;61651;45.508;12.232;2023-12-07T07:17:58;27.90;;;24.87;;
14007;SDS011;61651;45.508;12.232;2023-12-07T07:21:00;27.63;;;24.73;;
14007;SDS011;61651;45.508;12.232;2023-12-07T07:24:04;28.83;;;25.83;;
14007;SDS011;61651;45.508;12.232;2023-12-07T07:27:06;28.23;;;25.33;;
14007;SDS011;61651;45.508;12.232;2023-12-07T07:30:09;27.50;;;24.80;;
14007;SDS011;61651;45.508;12.232;2023-12-07T07:33:13;28.47;;;25.70;;
14007;SDS011;61651;45.508;12.232;2023-12-07T07:36:15;31.63;;;28.47;;
14007;SDS011;61651;45.508;12.232;2023-12-07T07:39:17;30.10;;;27.13;;
14007;SDS011;61651;45.508;12.232;2023-12-07T07:42:19;30.00;;;26.93;;
14007;SDS011;61651;45.508;12.232;2023-12-07T07:45:22;28.87;;;25.87;;
14007;SDS011;61651;45.508;12.232;2023-12-07T07:48:26;29.20;;;26.07;;
14007;SDS011;61651;45.508;12.232;2023-12-07T07:51:28;29.07;;;26.17;;
14007;SDS011;61651;45.508;12.232;2023-12-07T07:54:30;28.13;;;25.37;;
14007;SDS011;61651;45.508;12.232;2023-12-07T07:57:32;27.83;;;25.07;;
14007;SDS011;61651;45.508;12.232;2023-12-07T08:00:34;23.60;;;21.17;;
14007;SDS011;61651;45.508;12.232;2023-12-07T08:03:37;26.47;;;23.47;;
14007;SDS011;61651;45.508;12.232;2023-12-07T08:06:40;25.43;;;22.87;;
14007;SDS011;61651;45.508;12.232;2023-12-07T08:09:42;24.13;;;21.77;;
14007;SDS011;61651;45.508;12.232;2023-12-07T08:12:44;24.43;;;22.13;;
14007;SDS011;61651;45.508;12.232;2023-12-07T08:15:46;24.33;;;21.73;;
14007;SDS011;61651;45.508;12.232;2023-12-07T08:18:49;22.53;;;20.30;;
14007;SDS011;61651;45.508;12.232;2023-12-07T08:21:51;22.23;;;20.03;;
14007;SDS011;61651;45.508;12.232;2023-12-07T08:24:53;22.53;;;20.27;;
14007;SDS011;61651;45.508;12.232;2023-12-07T08:27:55;22.73;;;20.53;;
14007;SDS011;61651;45.508;12.232;2023-12-07T08:30:57;23.80;;;21.10;;
14007;SDS011;61651;45.508;12.232;2023-12-07T08:34:01;22.90;;;20.50;;
14007;SDS011;61651;45.508;12.232;2023-12-07T08:37:03;24.05;;;21.75;;
14007;SDS011;61651;45.508;12.232;2023-12-07T08:40:05;21.27;;;19.17;;
14007;SDS011;61651;45.508;12.232;2023-12-07T08:43:11;21.60;;;19.40;;
14007;SDS011;61651;45.508;12.232;2023-12-07T08:46:13;20.27;;;18.23;;
14007;SDS011;61651;45.508;12.232;2023-12-07T08:49:17;21.50;;;19.30;;
14007;SDS011;61651;45.508;12.232;2023-12-07T08:52:19;21.00;;;18.70;;
14007;SDS011;61651;45.508;12.232;2023-12-07T08:55:21;20.73;;;18.73;;
14007;SDS011;61651;45.508;12.232;2023-12-07T08:58:23;21.03;;;18.77;;
14007;SDS011;61651;45.508;12.232;2023-12-07T09:01:25;20.87;;;18.77;;
14007;SDS011;61651;45.508;12.232;2023-12-07T09:04:29;21.40;;;19.20;;
14007;SDS011;61651;45.508;12.232;2023-12-07T09:07:31;23.27;;;18.60;;
14007;SDS011;61651;45.508;12.232;2023-12-07T09:10:33;23.17;;;20.77;;
14007;SDS011;61651;45.508;12.232;2023-12-07T09:13:35;20.83;;;18.67;;
14007;SDS011;61651;45.508;12.232;2023-12-07T09:16:42;20.60;;;18.60;;
14007;SDS011;61651;45.508;12.232;2023-12-07T09:19:47;20.47;;;18.43;;
14007;SDS011;61651;45.508;12.232;2023-12-07T09:22:49;21.80;;;19.57;;
14007;SDS011;61651;45.508;12.232;2023-12-07T09:25:51;18.80;;;17.10;;
14007;SDS011;61651;45.508;12.232;2023-12-07T09:28:53;20.63;;;18.58;;
14007;SDS011;61651;45.508;12.232;2023-12-07T09:31:55;18.53;;;16.47;;
14007;SDS011;61651;45.508;12.232;2023-12-07T09:34:59;18.03;;;16.23;;
14007;SDS011;61651;45.508;12.232;2023-12-07T09:38:01;18.73;;;16.80;;
14007;SDS011;61651;45.508;12.232;2023-12-07T09:41:03;17.83;;;16.23;;
14007;SDS011;61651;45.508;12.232;2023-12-07T09:44:06;19.17;;;17.27;;
14007;SDS011;61651;45.508;12.232;2023-12-07T09:47:07;18.93;;;17.07;;
14007;SDS011;61651;45.508;12.232;2023-12-07T09:50:13;19.60;;;17.63;;
14007;SDS011;61651;45.508;12.232;2023-12-07T09:53:17;18.10;;;16.37;;
14007;SDS011;61651;45.508;12.232;2023-12-07T09:56:20;18.60;;;16.17;;
14007;SDS011;61651;45.508;12.232;2023-12-07T09:59:23;19.00;;;17.20;;
14007;SDS011;61651;45.508;12.232;2023-12-07T10:02:25;18.30;;;16.50;;
14007;SDS011;61651;45.508;12.232;2023-12-07T10:05:30;17.47;;;15.70;;
14007;SDS011;61651;45.508;12.232;2023-12-07T10:08:33;16.90;;;15.07;;
14007;SDS011;61651;45.508;12.232;2023-12-07T10:11:36;16.30;;;14.60;;
14007;SDS011;61651;45.508;12.232;2023-12-07T10:14:38;16.45;;;14.75;;
14007;SDS011;61651;45.508;12.232;2023-12-07T10:17:43;16.40;;;14.97;;
14007;SDS011;61651;45.508;12.232;2023-12-07T10:20:49;16.60;;;15.03;;
14007;SDS011;61651;45.508;12.232;2023-12-07T10:23:51;15.00;;;13.50;;
14007;SDS011;61651;45.508;12.232;2023-12-07T10:26:55;14.13;;;12.63;;
14007;SDS011;61651;45.508;12.232;2023-12-07T10:29:59;14.90;;;12.70;;
14007;SDS011;61651;45.508;12.232;2023-12-07T10:33:03;13.13;;;11.83;;
14007;SDS011;61651;45.508;12.232;2023-12-07T10:36:12;13.20;;;11.87;;
14007;SDS011;61651;45.508;12.232;2023-12-07T10:39:18;12.90;;;11.77;;
14007;SDS011;61651;45.508;12.232;2023-12-07T10:42:24;13.43;;;12.03;;
14007;SDS011;61651;45.508;12.232;2023-12-07T10:45:28;14.13;;;11.93;;
14007;SDS011;61651;45.508;12.232;2023-12-07T10:48:34;12.70;;;11.47;;
14007;SDS011;61651;45.508;12.232;2023-12-07T10:51:41;13.27;;;11.97;;
14007;SDS011;61651;45.508;12.232;2023-12-07T10:54:50;13.77;;;12.47;;
14007;SDS011;61651;45.508;12.232;2023-12-07T10:58:00;15.03;;;13.43;;
14007;SDS011;61651;45.508;12.232;2023-12-07T11:01:05;15.60;;;13.67;;
14007;SDS011;61651;45.508;12.232;2023-12-07T11:04:11;26.88;;;18.65;;
14007;SDS011;61651;45.508;12.232;2023-12-07T11:07:16;30.07;;;18.83;;
14007;SDS011;61651;45.508;12.232;2023-12-07T11:10:24;19.87;;;15.43;;
14007;SDS011;61651;45.508;12.232;2023-12-07T11:13:35;17.97;;;14.37;;
14007;SDS011;61651;45.508;12.232;2023-12-07T11:16:40;14.70;;;12.30;;
14007;SDS011;61651;45.508;12.232;2023-12-07T11:19:44;11.70;;;10.53;;
14007;SDS011;61651;45.508;12.232;2023-12-07T11:22:51;16.90;;;13.00;;
14007;SDS011;61651;45.508;12.232;2023-12-07T11:25:56;35.97;;;18.83;;
14007;SDS011;61651;45.508;12.232;2023-12-07T11:29:00;24.57;;;13.90;;
14007;SDS011;61651;45.508;12.232;2023-12-07T11:32:03;20.08;;;14.35;;
14007;SDS011;61651;45.508;12.232;2023-12-07T11:35:11;17.10;;;12.40;;
14007;SDS011;61651;45.508;12.232;2023-12-07T11:38:16;17.27;;;12.67;;
14007;SDS011;61651;45.508;12.232;2023-12-07T11:41:21;14.93;;;12.83;;
14007;SDS011;61651;45.508;12.232;2023-12-07T11:44:33;14.10;;;12.63;;
14007;SDS011;61651;45.508;12.232;2023-12-07T11:47:35;24.80;;;16.83;;
14007;SDS011;61651;45.508;12.232;2023-12-07T11:54:04;22.83;;;16.53;;
14007;SDS011;61651;45.508;12.232;2023-12-07T11:57:13;16.43;;;14.60;;
14007;SDS011;61651;45.508;12.232;2023-12-07T12:00:23;20.87;;;18.53;;
14007;SDS011;61651;45.508;12.232;2023-12-07T12:03:33;24.20;;;16.23;;
14007;SDS011;61651;45.508;12.232;2023-12-07T12:06:36;18.70;;;15.87;;
14007;SDS011;61651;45.508;12.232;2023-12-07T12:09:40;19.75;;;16.17;;
14007;SDS011;61651;45.508;12.232;2023-12-07T12:12:46;23.27;;;17.97;;
14007;SDS011;61651;45.508;12.232;2023-12-07T12:15:48;18.70;;;16.70;;
14007;SDS011;61651;45.508;12.232;2023-12-07T12:18:54;15.00;;;13.60;;
14007;SDS011;61651;45.508;12.232;2023-12-07T12:21:58;15.77;;;14.17;;
14007;SDS011;61651;45.508;12.232;2023-12-07T12:25:14;15.43;;;13.80;;
14007;SDS011;61651;45.508;12.232;2023-12-07T12:28:20;15.67;;;14.13;;
14007;SDS011;61651;45.508;12.232;2023-12-07T12:31:26;15.43;;;13.93;;
14007;SDS011;61651;45.508;12.232;2023-12-07T12:34:33;16.40;;;13.50;;
14007;SDS011;61651;45.508;12.232;2023-12-07T12:37:35;16.20;;;14.53;;
14007;SDS011;61651;45.508;12.232;2023-12-07T12:40:41;15.37;;;13.40;;
14007;SDS011;61651;45.508;12.232;2023-12-07T12:43:44;16.23;;;14.70;;
14007;SDS011;61651;45.508;12.232;2023-12-07T12:46:46;15.20;;;13.53;;
14007;SDS011;61651;45.508;12.232;2023-12-07T12:49:55;15.03;;;13.63;;
14007;SDS011;61651;45.508;12.232;2023-12-07T12:52:57;14.87;;;13.33;;
14007;SDS011;61651;45.508;12.232;2023-12-07T12:56:08;14.73;;;13.27;;
14007;SDS011;61651;45.508;12.232;2023-12-07T12:59:16;14.37;;;13.03;;
14007;SDS011;61651;45.508;12.232;2023-12-07T13:02:21;15.77;;;14.17;;
14007;SDS011;61651;45.508;12.232;2023-12-07T13:05:30;14.37;;;12.87;;
14007;SDS011;61651;45.508;12.232;2023-12-07T13:08:34;13.97;;;12.67;;
14007;SDS011;61651;45.508;12.232;2023-12-07T13:11:39;14.60;;;13.07;;
14007;SDS011;61651;45.508;12.232;2023-12-07T13:14:44;14.53;;;12.97;;
14007;SDS011;61651;45.508;12.232;2023-12-07T13:17:46;14.87;;;13.50;;
14007;SDS011;61651;45.508;12.232;2023-12-07T13:20:50;14.27;;;12.90;;
14007;SDS011;61651;45.508;12.232;2023-12-07T13:23:57;12.95;;;11.65;;
14007;SDS011;61651;45.508;12.232;2023-12-07T13:27:02;14.02;;;12.68;;
14007;SDS011;61651;45.508;12.232;2023-12-07T13:30:07;13.18;;;11.82;;
14007;SDS011;61651;45.508;12.232;2023-12-07T13:33:11;14.40;;;12.98;;
14007;SDS011;61651;45.508;12.232;2023-12-07T13:36:13;13.48;;;12.07;;
14007;SDS011;61651;45.508;12.232;2023-12-07T13:39:19;13.77;;;12.30;;
14007;SDS011;61651;45.508;12.232;2023-12-07T13:42:26;13.27;;;12.05;;
14007;SDS011;61651;45.508;12.232;2023-12-07T13:45:30;13.40;;;12.10;;
14007;SDS011;61651;45.508;12.232;2023-12-07T13:48:32;13.02;;;11.82;;
14007;SDS011;61651;45.508;12.232;2023-12-07T13:51:35;14.25;;;12.95;;
14007;SDS011;61651;45.508;12.232;2023-12-07T13:54:40;13.50;;;12.25;;
14007;SDS011;61651;45.508;12.232;2023-12-07T13:57:44;15.63;;;14.13;;
14007;SDS011;61651;45.508;12.232;2023-12-07T14:00:46;14.20;;;12.80;;
14007;SDS011;61651;45.508;12.232;2023-12-07T14:03:48;14.45;;;13.05;;
14007;SDS011;61651;45.508;12.232;2023-12-07T14:06:50;14.65;;;13.35;;
14007;SDS011;61651;45.508;12.232;2023-12-07T14:09:52;16.52;;;14.88;;
14007;SDS011;61651;45.508;12.232;2023-12-07T14:12:58;15.02;;;13.52;;
14007;SDS011;61651;45.508;12.232;2023-12-07T14:16:00;15.00;;;13.60;;
14007;SDS011;61651;45.508;12.232;2023-12-07T14:19:02;14.15;;;12.77;;
14007;SDS011;61651;45.508;12.232;2023-12-07T14:22:04;15.27;;;13.75;;
14007;SDS011;61651;45.508;12.232;2023-12-07T14:25:08;14.10;;;12.80;;
14007;SDS011;61651;45.508;12.232;2023-12-07T14:28:17;15.57;;;14.18;;
14007;SDS011;61651;45.508;12.232;2023-12-07T14:31:21;14.82;;;13.50;;
14007;SDS011;61651;45.508;12.232;2023-12-07T14:34:25;14.43;;;13.00;;
14007;SDS011;61651;45.508;12.232;2023-12-07T14:37:33;14.57;;;13.23;;
14007;SDS011;61651;45.508;12.232;2023-12-07T14:40:37;18.60;;;14.30;;
14007;SDS011;61651;45.508;12.232;2023-12-07T14:43:44;15.30;;;13.95;;
14007;SDS011;61651;45.508;12.232;2023-12-07T14:46:49;15.60;;;13.73;;
14007;SDS011;61651;45.508;12.232;2023-12-07T14:49:53;15.55;;;14.00;;
14007;SDS011;61651;45.508;12.232;2023-12-07T14:52:55;17.08;;;14.07;;
14007;SDS011;61651;45.508;12.232;2023-12-07T14:55:57;15.90;;;14.40;;
14007;SDS011;61651;45.508;12.232;2023-12-07T14:59:00;15.52;;;14.10;;
14007;SDS011;61651;45.508;12.232;2023-12-07T15:02:06;17.00;;;15.18;;
14007;SDS011;61651;45.508;12.232;2023-12-07T15:05:10;16.30;;;14.70;;
14007;SDS011;61651;45.508;12.232;2023-12-07T15:08:12;18.80;;;17.08;;
14007;SDS011;61651;45.508;12.232;2023-12-07T15:11:14;18.75;;;14.82;;
14007;SDS011;61651;45.508;12.232;2023-12-07T15:14:22;16.80;;;15.00;;
14007;SDS011;61651;45.508;12.232;2023-12-07T15:17:24;16.65;;;14.65;;
14007;SDS011;61651;45.508;12.232;2023-12-07T15:20:29;17.63;;;15.82;;
14007;SDS011;61651;45.508;12.232;2023-12-07T15:23:33;20.77;;;16.13;;
14007;SDS011;61651;45.508;12.232;2023-12-07T15:26:35;18.90;;;17.00;;
14007;SDS011;61651;45.508;12.232;2023-12-07T15:29:44;18.23;;;16.33;;
14007;SDS011;61651;45.508;12.232;2023-12-07T15:32:48;18.20;;;16.23;;
14007;SDS011;61651;45.508;12.232;2023-12-07T15:35:50;18.83;;;16.63;;
14007;SDS011;61651;45.508;12.232;2023-12-07T15:38:56;17.23;;;15.57;;
14007;SDS011;61651;45.508;12.232;2023-12-07T15:42:02;18.67;;;16.47;;
14007;SDS011;61651;45.508;12.232;2023-12-07T15:45:07;18.13;;;16.33;;
14007;SDS011;61651;45.508;12.232;2023-12-07T15:48:09;17.53;;;15.70;;
14007;SDS011;61651;45.508;12.232;2023-12-07T15:51:16;17.97;;;16.07;;
14007;SDS011;61651;45.508;12.232;2023-12-07T15:54:19;17.43;;;15.73;;
14007;SDS011;61651;45.508;12.232;2023-12-07T15:57:25;18.53;;;15.93;;
14007;SDS011;61651;45.508;12.232;2023-12-07T16:00:31;18.70;;;16.73;;
14007;SDS011;61651;45.508;12.232;2023-12-07T16:03:37;19.23;;;17.30;;
14007;SDS011;61651;45.508;12.232;2023-12-07T16:06:39;18.93;;;16.93;;
14007;SDS011;61651;45.508;12.232;2023-12-07T16:09:43;19.43;;;17.53;;
14007;SDS011;61651;45.508;12.232;2023-12-07T16:12:54;19.07;;;16.87;;
14007;SDS011;61651;45.508;12.232;2023-12-07T16:15:58;19.37;;;16.80;;
14007;SDS011;61651;45.508;12.232;2023-12-07T16:45:18;22.27;;;20.00;;
14007;SDS011;61651;45.508;12.232;2023-12-07T16:48:21;20.73;;;18.60;;
14007;SDS011;61651;45.508;12.232;2023-12-07T16:51:28;21.70;;;19.40;;
14007;SDS011;61651;45.508;12.232;2023-12-07T16:54:30;25.67;;;20.67;;
14007;SDS011;61651;45.508;12.232;2023-12-07T16:57:32;26.00;;;21.43;;
14007;SDS011;61651;45.508;12.232;2023-12-07T17:00:45;23.60;;;21.17;;
14007;SDS011;61651;45.508;12.232;2023-12-07T17:03:49;25.43;;;22.80;;
14007;SDS011;61651;45.508;12.232;2023-12-07T17:06:55;25.97;;;23.20;;
14007;SDS011;61651;45.508;12.232;2023-12-07T17:09:58;27.33;;;24.43;;
14007;SDS011;61651;45.508;12.232;2023-12-07T17:13:06;37.57;;;30.30;;
14007;SDS011;61651;45.508;12.232;2023-12-07T17:16:13;33.03;;;28.90;;
14007;SDS011;61651;45.508;12.232;2023-12-07T17:19:21;27.80;;;24.80;;
14007;SDS011;61651;45.508;12.232;2023-12-07T17:22:27;29.70;;;24.93;;
14007;SDS011;61651;45.508;12.232;2023-12-07T17:25:33;30.90;;;27.43;;
14007;SDS011;61651;45.508;12.232;2023-12-07T17:28:35;53.70;;;42.23;;
14007;SDS011;61651;45.508;12.232;2023-12-07T17:31:41;42.37;;;33.47;;
14007;SDS011;61651;45.508;12.232;2023-12-07T17:34:45;43.07;;;36.67;;
14007;SDS011;61651;45.508;12.232;2023-12-07T17:37:58;39.17;;;33.77;;
14007;SDS011;61651;45.508;12.232;2023-12-07T17:41:02;35.10;;;28.87;;
14007;SDS011;61651;45.508;12.232;2023-12-07T17:44:05;33.37;;;29.77;;
14007;SDS011;61651;45.508;12.232;2023-12-07T17:47:09;39.80;;;33.40;;
14007;SDS011;61651;45.508;12.232;2023-12-07T17:50:14;31.60;;;28.30;;
14007;SDS011;61651;45.508;12.232;2023-12-07T17:53:21;30.40;;;27.10;;
14007;SDS011;61651;45.508;12.232;2023-12-07T17:56:27;30.87;;;27.27;;
14007;SDS011;61651;45.508;12.232;2023-12-07T17:59:32;170.77;;;153.93;;
14007;SDS011;61651;45.508;12.232;2023-12-07T18:02:41;42.67;;;38.47;;
14007;SDS011;61651;45.508;12.232;2023-12-07T18:05:43;41.00;;;35.37;;
14007;SDS011;61651;45.508;12.232;2023-12-07T18:08:49;37.03;;;32.00;;